Terminal Aerodrome Forecast
Issued by NWS Billings, MT

Home | Current Version | Previous Version | Text Only | Print | Product List | Glossary On
Versions: 1 2 3 4 5 6 7 8 9 10 11 12 13 14 15 16 17 18 19 20 21 22 23 24 25 26 27 28 29 30 31 32 33 34 35
000
FTUS45 KBYZ 061531 AAA
TAFSHR
TAF AMD
KSHR 061531Z 0616/0712 31017KT 5SM SHRA SCT025 BKN040
     FM061700 31018G26KT P6SM -SHRA SCT025 OVC045
     FM061900 32020G29KT P6SM BKN050
     FM062300 32014KT P6SM OVC040=

USA.gov is the U.S. government's official web portal to all federal, state and local government web resources and services.